createdAt,value
2023-03-19T00:03:04.099Z,7.20
2023-03-19T00:06:17.941Z,9.60
2023-03-19T00:09:34.980Z,6.47
2023-03-19T00:12:47.974Z,8.65
2023-03-19T00:15:53.069Z,7.85
2023-03-19T00:19:06.046Z,7.40
2023-03-19T00:22:21.153Z,5.77
2023-03-19T00:25:45.029Z,7.90
2023-03-19T00:28:57.058Z,8.20
2023-03-19T00:32:10.044Z,7.80
2023-03-19T00:35:10.115Z,8.67
2023-03-19T00:38:23.059Z,7.40
2023-03-19T00:41:49.196Z,6.00
2023-03-19T00:45:01.161Z,6.23
2023-03-19T00:48:13.118Z,7.87
2023-03-19T00:51:25.181Z,9.03
2023-03-19T00:54:37.211Z,7.43
2023-03-19T00:58:03.109Z,9.15
2023-03-19T01:01:17.232Z,7.87
2023-03-19T01:04:29.241Z,9.83
2023-03-19T01:07:41.273Z,7.60
2023-03-19T01:11:09.205Z,7.67
2023-03-19T01:14:23.221Z,10.30
2023-03-19T01:17:41.236Z,10.40
2023-03-19T01:20:41.206Z,10.60
2023-03-19T01:23:53.281Z,8.73
2023-03-19T01:27:05.214Z,9.07
2023-03-19T01:30:35.485Z,8.65
2023-03-19T01:34:05.309Z,8.37
2023-03-19T01:37:19.357Z,10.50
2023-03-19T01:40:31.385Z,10.20
2023-03-19T01:43:55.229Z,9.65
2023-03-19T01:47:21.344Z,9.67
2023-03-19T01:50:49.320Z,10.05
2023-03-19T01:54:19.348Z,9.07
2023-03-19T01:57:44.425Z,8.27
2023-03-19T02:01:02.333Z,7.73
2023-03-19T02:04:35.400Z,9.00
2023-03-19T02:07:59.346Z,9.10
2023-03-19T02:11:23.358Z,8.10
2023-03-19T02:14:35.423Z,8.65
2023-03-19T02:17:59.349Z,7.13
2023-03-19T02:21:24.373Z,7.45
2023-03-19T02:24:49.461Z,10.43
2023-03-19T02:28:16.443Z,7.70
2023-03-19T02:31:41.434Z,7.70
2023-03-19T02:34:53.959Z,7.30
2023-03-19T02:38:15.611Z,5.95
2023-03-19T02:41:27.429Z,6.65
2023-03-19T02:44:54.466Z,6.40
2023-03-19T02:48:07.503Z,5.40
2023-03-19T02:51:20.628Z,7.03
2023-03-19T02:54:20.741Z,6.90
2023-03-19T02:57:34.544Z,5.15
2023-03-19T03:01:06.633Z,7.07
2023-03-19T03:04:31.566Z,6.55
2023-03-19T03:07:31.540Z,5.03
2023-03-19T03:10:56.505Z,7.20
2023-03-19T03:13:56.555Z,5.77
2023-03-19T03:17:22.609Z,4.00
2023-03-19T03:20:23.562Z,5.83
2023-03-19T03:23:47.616Z,5.40
2023-03-19T03:27:03.571Z,6.33
2023-03-19T03:30:18.842Z,5.37
2023-03-19T03:33:32.678Z,5.77
2023-03-19T03:36:45.705Z,4.90
2023-03-19T03:39:57.605Z,5.03
2023-03-19T03:43:09.733Z,4.10
2023-03-19T03:46:21.720Z,5.20
2023-03-19T03:49:48.786Z,4.50
2023-03-19T03:53:00.714Z,4.70
2023-03-19T03:56:28.699Z,5.17
2023-03-19T03:59:40.732Z,3.13
2023-03-19T04:02:54.785Z,4.80
2023-03-19T04:06:21.744Z,3.40
2023-03-19T04:09:46.731Z,3.60
2023-03-19T04:12:58.727Z,4.75
2023-03-19T04:16:10.816Z,3.27
2023-03-19T04:19:34.806Z,4.10
2023-03-19T04:23:00.839Z,4.97
2023-03-19T04:26:25.835Z,4.13
2023-03-19T04:29:25.798Z,3.80
2023-03-19T04:32:38.873Z,4.13
2023-03-19T04:35:50.928Z,3.10
2023-03-19T04:39:16.778Z,2.77
2023-03-19T04:42:28.882Z,4.10
2023-03-19T04:45:41.788Z,6.27
2023-03-19T04:49:06.918Z,3.63
2023-03-19T04:52:18.946Z,3.77
2023-03-19T04:55:44.868Z,3.60
2023-03-19T04:59:02.940Z,4.00
2023-03-19T05:02:14.970Z,3.30
2023-03-19T05:05:27.912Z,3.10
2023-03-19T05:08:50.968Z,3.05
2023-03-19T05:12:17.977Z,3.50
2023-03-19T05:15:30.972Z,3.10
2023-03-19T05:18:43.992Z,3.20
2023-03-19T05:21:56.935Z,4.03
2023-03-19T05:25:08.967Z,3.77
2023-03-19T05:28:34.952Z,2.67
2023-03-19T05:31:47.956Z,4.10
2023-03-19T05:35:00.119Z,3.50
2023-03-19T05:38:14.047Z,2.87
2023-03-19T05:41:26.068Z,3.27
2023-03-19T05:47:55.094Z,2.97
2023-03-19T05:51:09.088Z,2.60
2023-03-19T05:54:21.105Z,5.80
2023-03-19T05:57:34.059Z,2.75
2023-03-19T06:00:47.117Z,2.77
2023-03-19T06:04:13.196Z,2.93
2023-03-19T06:07:37.085Z,2.95
2023-03-19T06:10:50.084Z,3.20
2023-03-19T06:14:02.178Z,3.00
2023-03-19T06:17:18.144Z,2.70
2023-03-19T06:20:44.211Z,3.75
2023-03-19T06:23:57.212Z,3.80
2023-03-19T06:27:09.208Z,2.50
2023-03-19T06:30:22.097Z,3.05
2023-03-19T06:33:34.219Z,2.30
2023-03-19T06:40:03.287Z,2.60
2023-03-19T06:43:21.238Z,2.60
2023-03-19T06:46:33.249Z,3.50
2023-03-19T06:49:45.336Z,3.80
2023-03-19T06:52:57.284Z,4.53
2023-03-19T06:56:23.197Z,3.00
2023-03-19T06:59:35.338Z,3.40
2023-03-19T07:02:48.345Z,4.77
2023-03-19T07:05:48.303Z,2.97
2023-03-19T07:09:00.323Z,3.33
2023-03-19T07:12:14.341Z,3.40
2023-03-19T07:15:27.324Z,3.03
2023-03-19T07:18:27.379Z,3.30
2023-03-19T07:21:40.348Z,4.40
2023-03-19T07:24:40.300Z,3.40
2023-03-19T07:28:06.320Z,3.43
2023-03-19T07:31:18.403Z,2.83
2023-03-19T07:34:30.450Z,3.97
2023-03-19T07:37:42.428Z,4.15
2023-03-19T07:41:03.128Z,4.00
2023-03-19T07:44:16.499Z,4.30
2023-03-19T07:47:29.632Z,4.90
2023-03-19T07:50:29.432Z,3.50
2023-03-19T07:53:41.411Z,5.03
2023-03-19T07:56:41.512Z,5.50
2023-03-19T08:00:07.494Z,6.10
2023-03-19T08:03:19.444Z,4.67
2023-03-19T08:06:19.478Z,3.30
2023-03-19T08:09:31.475Z,5.40
2023-03-19T08:12:31.465Z,4.00
2023-03-19T08:15:55.532Z,6.05
2023-03-19T08:19:09.531Z,5.85
2023-03-19T08:22:24.536Z,6.50
2023-03-19T08:25:24.495Z,4.85
2023-03-19T08:28:48.573Z,5.77
2023-03-19T08:31:59.511Z,4.77
2023-03-19T08:35:25.588Z,5.33
2023-03-19T08:38:37.570Z,7.57
2023-03-19T08:44:42.575Z,5.20
2023-03-19T08:48:07.669Z,6.10
2023-03-19T08:51:21.573Z,6.13
2023-03-19T08:54:33.646Z,5.60
2023-03-19T08:57:45.665Z,6.43
2023-03-19T09:00:57.673Z,8.33
2023-03-19T09:03:58.648Z,5.85
2023-03-19T09:07:28.666Z,7.00
2023-03-19T09:10:28.720Z,7.40
2023-03-19T09:13:52.661Z,7.53
2023-03-19T09:16:56.709Z,9.17
2023-03-19T09:20:08.659Z,5.50
2023-03-19T09:23:22.700Z,6.25
2023-03-19T09:26:34.748Z,5.67
2023-03-19T09:29:41.825Z,6.23
2023-03-19T09:32:55.760Z,5.40
2023-03-19T09:36:03.803Z,7.87
2023-03-19T09:39:29.848Z,8.70
2023-03-19T09:42:44.888Z,8.20
2023-03-19T09:46:09.838Z,7.25
2023-03-19T09:49:21.761Z,7.17
2023-03-19T09:52:49.742Z,6.73
2023-03-19T09:56:04.851Z,7.15
2023-03-19T09:59:16.790Z,6.25
2023-03-19T10:02:31.864Z,7.00
2023-03-19T10:05:58.875Z,5.80
2023-03-19T10:09:20.865Z,6.87
2023-03-19T10:12:51.808Z,6.27
2023-03-19T10:16:03.953Z,7.10
2023-03-19T10:19:27.882Z,8.10
2023-03-19T10:22:39.917Z,6.95
2023-03-19T10:26:06.933Z,5.45
2023-03-19T10:29:21.919Z,5.50
2023-03-19T10:32:45.890Z,5.70
2023-03-19T10:36:05.052Z,5.53
2023-03-19T10:39:31.912Z,5.55
2023-03-19T10:42:45.972Z,5.60
2023-03-19T10:46:12.168Z,5.77
2023-03-19T10:49:19.977Z,5.40
2023-03-19T10:52:45.102Z,5.67
2023-03-19T10:55:57.179Z,6.23
2023-03-19T10:59:21.993Z,6.07
2023-03-19T11:02:41.033Z,6.13
2023-03-19T11:06:05.089Z,6.00
2023-03-19T11:09:17.017Z,5.23
2023-03-19T11:12:42.003Z,5.90
2023-03-19T11:15:57.092Z,5.33
2023-03-19T11:19:26.105Z,5.80
2023-03-19T11:22:39.089Z,5.30
2023-03-19T11:26:04.081Z,6.00
2023-03-19T11:29:16.100Z,8.37
2023-03-19T11:32:46.199Z,6.13
2023-03-19T11:36:05.211Z,5.63
2023-03-19T11:39:35.139Z,5.77
2023-03-19T11:42:51.174Z,6.33
2023-03-19T11:46:16.322Z,6.43
2023-03-19T11:49:38.141Z,8.47
2023-03-19T11:53:10.249Z,8.97
2023-03-19T11:56:25.220Z,7.90
2023-03-19T11:59:54.160Z,6.60
2023-03-19T12:03:16.272Z,5.70
2023-03-19T12:06:42.238Z,6.13
2023-03-19T12:09:56.259Z,6.50
2023-03-19T12:13:21.250Z,6.33
2023-03-19T12:16:35.660Z,6.77
2023-03-19T12:20:04.285Z,7.20
2023-03-19T12:23:22.363Z,6.13
2023-03-19T12:26:49.385Z,6.67
2023-03-19T12:30:02.238Z,6.85
2023-03-19T12:33:40.299Z,7.87
2023-03-19T12:36:52.323Z,7.15
2023-03-19T12:40:18.339Z,7.50
2023-03-19T12:43:32.359Z,6.70
2023-03-19T12:46:59.174Z,7.50
2023-03-19T12:50:09.352Z,7.50
2023-03-19T12:53:34.314Z,7.40
2023-03-19T12:56:49.366Z,6.57
2023-03-19T13:00:15.372Z,6.83
2023-03-19T13:03:31.457Z,7.53
2023-03-19T13:06:56.468Z,7.17
2023-03-19T13:10:08.449Z,7.00
2023-03-19T13:13:36.433Z,9.10
2023-03-19T13:16:56.463Z,7.50
2023-03-19T13:20:08.396Z,7.60
2023-03-19T13:23:21.978Z,7.17
2023-03-19T13:26:47.476Z,6.90
2023-03-19T13:29:59.529Z,7.13
2023-03-19T13:33:29.596Z,7.90
2023-03-19T13:36:44.563Z,6.85
2023-03-19T13:40:08.560Z,7.27
2023-03-19T13:43:27.904Z,6.97
2023-03-19T13:47:05.587Z,6.77
2023-03-19T13:50:28.597Z,7.45
2023-03-19T13:54:03.558Z,6.70
2023-03-19T13:57:26.533Z,6.73
2023-03-19T14:00:57.625Z,6.80
2023-03-19T14:04:22.585Z,6.83
2023-03-19T14:07:36.560Z,7.70
2023-03-19T14:11:00.563Z,6.90
2023-03-19T14:14:10.678Z,7.80
2023-03-19T14:17:38.674Z,7.43
2023-03-19T14:20:51.933Z,5.90
2023-03-19T14:24:52.238Z,6.50
2023-03-19T14:27:29.644Z,6.40
2023-03-19T14:30:54.691Z,6.35
2023-03-19T14:34:12.684Z,7.30
2023-03-19T14:37:40.694Z,6.20
2023-03-19T14:40:55.706Z,6.57
2023-03-19T14:44:25.686Z,6.27
2023-03-19T14:47:46.779Z,6.00
2023-03-19T14:51:16.785Z,6.50
2023-03-19T14:54:21.617Z,7.20
2023-03-19T14:57:33.831Z,7.73
2023-03-19T15:00:50.810Z,7.83
2023-03-19T15:04:17.734Z,8.30
2023-03-19T15:07:17.810Z,6.37
2023-03-19T15:10:41.767Z,6.87
2023-03-19T15:13:56.844Z,8.43
2023-03-19T15:17:23.834Z,7.05
2023-03-19T15:20:37.776Z,7.85
2023-03-19T15:24:02.806Z,7.67
2023-03-19T15:27:02.837Z,9.07
2023-03-19T15:30:57.463Z,8.43
2023-03-19T15:34:00.958Z,7.65
2023-03-19T15:37:25.875Z,7.93
2023-03-19T15:40:37.944Z,8.40
2023-03-19T15:44:01.933Z,9.73
2023-03-19T15:47:13.907Z,9.00
2023-03-19T15:50:39.948Z,10.05
2023-03-19T15:53:51.928Z,9.40
2023-03-19T15:57:16.953Z,9.60
2023-03-19T16:00:29.988Z,10.23
2023-03-19T16:03:57.993Z,10.17
2023-03-19T16:07:11.989Z,10.37
2023-03-19T16:10:49.977Z,13.00
2023-03-19T16:14:03.119Z,12.80
2023-03-19T16:17:37.974Z,12.00
2023-03-19T16:20:50.021Z,10.70
2023-03-19T16:24:17.026Z,10.47
2023-03-19T16:27:29.078Z,10.47
2023-03-19T16:30:41.985Z,11.67
2023-03-19T16:33:42.037Z,13.30
2023-03-19T16:37:07.051Z,11.80
2023-03-19T16:40:21.047Z,11.45
2023-03-19T16:43:45.128Z,11.87
2023-03-19T16:46:45.175Z,11.17
2023-03-19T16:50:11.111Z,10.57
2023-03-19T16:53:26.124Z,10.00
2023-03-19T16:56:52.107Z,10.83
2023-03-19T17:00:05.112Z,10.03
2023-03-19T17:03:29.120Z,11.70
2023-03-19T17:06:41.124Z,12.27
2023-03-19T17:09:54.195Z,11.07
2023-03-19T17:13:09.116Z,9.15
2023-03-19T17:16:33.222Z,9.95
2023-03-19T17:19:48.177Z,9.30
2023-03-19T17:23:04.203Z,10.23
2023-03-19T17:26:04.230Z,11.23
2023-03-19T17:29:30.258Z,12.07
2023-03-19T17:32:42.287Z,13.27
2023-03-19T17:35:54.279Z,10.93
2023-03-19T17:42:23.253Z,13.43
2023-03-19T17:45:49.324Z,11.83
2023-03-19T17:48:49.219Z,11.73
2023-03-19T17:52:13.561Z,12.07
2023-03-19T17:55:14.311Z,13.70
2023-03-19T17:58:40.300Z,14.53
2023-03-19T18:01:54.343Z,13.93
2023-03-19T18:08:07.337Z,15.53
2023-03-19T18:11:20.459Z,14.10
2023-03-19T18:14:51.496Z,13.23
2023-03-19T18:18:17.307Z,11.07
2023-03-19T18:21:18.412Z,13.37
2023-03-19T18:24:31.350Z,13.65
2023-03-19T18:27:31.357Z,13.57
2023-03-19T18:30:55.428Z,12.45
2023-03-19T18:34:09.410Z,13.97
2023-03-19T18:37:34.373Z,16.83
2023-03-19T18:40:46.427Z,13.77
2023-03-19T18:44:10.431Z,12.50
2023-03-19T18:47:10.413Z,15.65
2023-03-19T18:50:41.576Z,17.17
2023-03-19T18:53:42.548Z,13.20
2023-03-19T19:00:00.485Z,14.47
2023-03-19T19:03:25.556Z,13.85
2023-03-19T19:06:47.858Z,14.70
2023-03-19T19:09:53.596Z,17.73
2023-03-19T19:13:05.508Z,12.97
2023-03-19T19:16:18.685Z,15.30
2023-03-19T19:19:31.545Z,13.27
2023-03-19T19:22:57.563Z,16.60
2023-03-19T19:26:15.607Z,15.23
2023-03-19T19:29:41.578Z,14.40
2023-03-19T19:32:53.614Z,17.60
2023-03-19T19:36:18.623Z,17.13
2023-03-19T19:39:32.647Z,14.30
2023-03-19T19:42:44.620Z,17.20
2023-03-19T19:45:56.711Z,16.60
2023-03-19T19:49:20.699Z,14.90
2023-03-19T19:52:35.741Z,17.53
2023-03-19T19:56:02.694Z,15.90
2023-03-19T19:59:14.693Z,14.80
2023-03-19T20:02:43.700Z,15.20
2023-03-19T20:05:56.782Z,15.70
2023-03-19T20:09:08.704Z,17.00
2023-03-19T20:12:38.760Z,18.67
2023-03-19T20:15:50.779Z,14.13
2023-03-19T20:19:15.744Z,14.33
2023-03-19T20:22:15.795Z,13.60
2023-03-19T20:25:28.788Z,14.60
2023-03-19T20:28:43.782Z,12.17
2023-03-19T20:32:07.799Z,12.35
2023-03-19T20:35:07.802Z,11.67
2023-03-19T20:38:19.820Z,13.30
2023-03-19T20:41:31.826Z,12.27
2023-03-19T20:45:00.859Z,14.53
2023-03-19T20:48:12.891Z,13.33
2023-03-19T20:51:37.858Z,12.30
2023-03-19T20:54:37.855Z,10.10
2023-03-19T20:58:06.903Z,13.63
2023-03-19T21:01:21.115Z,11.07
2023-03-19T21:04:33.874Z,11.75
2023-03-19T21:07:47.984Z,11.00
2023-03-19T21:11:12.877Z,12.30
2023-03-19T21:14:13.004Z,8.93
2023-03-19T21:17:40.925Z,10.93
2023-03-19T21:20:52.987Z,10.20
2023-03-19T21:24:17.002Z,13.25
2023-03-19T21:27:16.996Z,10.30
2023-03-19T21:30:41.002Z,8.23
2023-03-19T21:33:58.568Z,9.67
2023-03-19T21:37:10.009Z,8.60
2023-03-19T21:40:10.069Z,10.10
2023-03-19T21:43:36.939Z,8.75
2023-03-19T21:46:49.058Z,9.90
2023-03-19T21:50:22.051Z,9.13
2023-03-19T21:53:34.014Z,8.60
2023-03-19T21:56:59.091Z,7.63
2023-03-19T21:59:59.113Z,7.53
2023-03-19T22:03:23.097Z,7.40
2023-03-19T22:06:43.260Z,8.63
2023-03-19T22:09:55.155Z,6.95
2023-03-19T22:13:07.113Z,8.30
2023-03-19T22:16:34.225Z,8.37
2023-03-19T22:19:46.162Z,8.83
2023-03-19T22:23:13.091Z,8.07
2023-03-19T22:26:13.166Z,7.57
2023-03-19T22:29:38.143Z,6.55
2023-03-19T22:32:38.181Z,8.90
2023-03-19T22:36:09.217Z,7.03
2023-03-19T22:39:29.180Z,8.13
2023-03-19T22:42:41.207Z,6.53
2023-03-19T22:45:53.275Z,7.15
2023-03-19T22:49:18.345Z,5.27
2023-03-19T22:52:18.277Z,6.10
2023-03-19T22:55:49.260Z,6.83
2023-03-19T22:58:49.223Z,5.77
2023-03-19T23:02:01.298Z,7.13
2023-03-19T23:05:01.310Z,6.47
2023-03-19T23:08:25.232Z,5.80
2023-03-19T23:11:39.300Z,6.37
2023-03-19T23:14:53.212Z,6.20
2023-03-19T23:18:09.329Z,5.80
2023-03-19T23:21:34.340Z,7.15
2023-03-19T23:24:34.281Z,6.03
2023-03-19T23:28:01.357Z,5.10
2023-03-19T23:31:13.505Z,6.57
2023-03-19T23:34:49.676Z,6.00
2023-03-19T23:37:37.407Z,5.07
2023-03-19T23:41:01.410Z,5.07
2023-03-19T23:44:15.517Z,6.15
2023-03-19T23:47:46.373Z,5.07
2023-03-19T23:50:59.409Z,7.40
2023-03-19T23:54:12.472Z,4.93
2023-03-19T23:57:24.515Z,5.67
